Time;durP1;ratioP1;P1;durP2;ratioP2;P2;SDS_P1;SDS_P2;PMS_P1;PMS_P2;Temp;Humidity;BMP_temperature;BMP_pressure;BME280_temperature;BME280_humidity;BME280_pressure;Samples;Min_cycle;Max_cycle;Signal;HPM_P1;HPM_P2
2023/09/06 00:01:22;;;;;;;2.20;1.97;;;;;;;18.30;89.33;101309.03;5086816;28;20245;-80
2023/09/06 00:03:50;;;;;;;1.87;1.53;;;;;;;18.27;89.65;101306.59;5091307;28;20210;-80
2023/09/06 00:06:17;;;;;;;2.67;2.10;;;;;;;18.26;89.67;101309.44;5089567;28;20220;-80
2023/09/06 00:08:43;;;;;;;3.80;2.00;;;;;;;18.23;89.64;101307.88;5091521;28;20197;-81
2023/09/06 00:11:10;;;;;;;4.23;1.70;;;;;;;18.21;89.79;101301.75;5090660;28;20217;-82
2023/09/06 00:13:37;;;;;;;2.17;1.90;;;;;;;18.20;89.80;101302.72;5091490;28;20208;-80
2023/09/06 00:16:04;;;;;;;3.63;1.80;;;;;;;18.18;89.61;101296.59;5090819;28;20291;-80
2023/09/06 00:18:31;;;;;;;1.93;1.80;;;;;;;18.12;89.40;101299.81;5090362;28;20203;-79
2023/09/06 00:20:59;;;;;;;4.77;2.27;;;;;;;18.08;89.31;101308.31;5092435;28;20858;-80
2023/09/06 00:23:26;;;;;;;2.60;1.80;;;;;;;18.03;88.08;101306.00;5090160;28;20296;-80
2023/09/06 00:25:53;;;;;;;4.83;1.80;;;;;;;17.88;85.39;101309.97;5086284;28;20210;-80
2023/09/06 00:28:20;;;;;;;3.33;1.80;;;;;;;17.75;85.31;101304.75;5090385;28;20281;-80
2023/09/06 00:30:46;;;;;;;1.83;1.70;;;;;;;17.66;85.83;101313.59;5088489;28;20612;-82
2023/09/06 00:33:13;;;;;;;3.20;1.70;;;;;;;17.59;85.73;101309.66;5088344;28;20205;-82
2023/09/06 00:35:39;;;;;;;2.67;1.60;;;;;;;17.53;85.87;101307.47;5090533;28;20206;-82
2023/09/06 00:38:08;;;;;;;2.83;1.57;;;;;;;17.48;86.57;101307.84;5088363;28;20206;-81
2023/09/06 00:40:37;;;;;;;2.70;1.90;;;;;;;17.47;87.40;101303.44;5088723;28;20229;-79
2023/09/06 00:43:04;;;;;;;2.87;1.90;;;;;;;17.48;88.69;101302.47;5087704;28;20198;-81
2023/09/06 00:45:38;;;;;;;4.63;2.13;;;;;;;17.51;89.36;101312.13;5088381;28;20201;-81
2023/09/06 00:48:06;;;;;;;2.57;1.97;;;;;;;17.51;89.86;101315.69;5088801;28;20743;-79
2023/09/06 00:50:35;;;;;;;3.13;2.00;;;;;;;17.53;90.72;101310.19;5089791;28;20217;-79
2023/09/06 00:53:03;;;;;;;3.80;2.50;;;;;;;17.55;91.17;101305.53;5087087;28;20202;-80
2023/09/06 00:55:31;;;;;;;2.13;1.60;;;;;;;17.54;89.15;101312.75;5089836;28;20201;-81
2023/09/06 00:57:58;;;;;;;1.70;1.60;;;;;;;17.45;87.93;101310.78;5084407;28;20217;-82
2023/09/06 01:00:24;;;;;;;3.87;1.80;;;;;;;17.33;88.03;101311.81;5091458;28;20200;-79
2023/09/06 01:02:51;;;;;;;3.37;1.53;;;;;;;17.24;89.15;101310.69;5086609;28;20221;-79
2023/09/06 01:05:19;;;;;;;3.17;1.87;;;;;;;17.16;90.26;101310.47;5090283;28;20204;-82
2023/09/06 01:07:50;;;;;;;2.73;1.67;;;;;;;17.10;90.88;101310.94;5092122;28;20256;-80
2023/09/06 01:10:17;;;;;;;2.50;1.83;;;;;;;17.07;91.32;101308.50;5087316;28;20213;-80
2023/09/06 01:12:44;;;;;;;2.70;1.63;;;;;;;17.05;91.75;101305.06;5090314;28;20218;-79
2023/09/06 01:18:33;;;;;;;2.60;1.50;;;;;;;17.04;92.34;101307.88;5045322;28;20291;-84
2023/09/06 01:21:07;;;;;;;2.10;1.63;;;;;;;17.04;92.63;101311.44;5040066;28;20229;-82
2023/09/06 01:23:37;;;;;;;3.20;1.87;;;;;;;17.06;93.13;101309.47;5041597;28;20663;-81
2023/09/06 01:26:05;;;;;;;1.53;1.43;;;;;;;17.01;90.63;101317.09;5037287;28;20208;-80
2023/09/06 01:28:32;;;;;;;2.03;1.40;;;;;;;16.91;89.96;101316.09;5042917;28;20591;-79
2023/09/06 01:31:00;;;;;;;1.60;1.40;;;;;;;16.84;90.10;101315.69;5048669;28;20222;-83
2023/09/06 01:33:27;;;;;;;3.67;1.40;;;;;;;16.80;89.89;101314.25;5040067;28;20208;-80
2023/09/06 01:35:54;;;;;;;2.83;1.70;;;;;;;16.73;88.89;101320.22;5039761;28;20215;-79
2023/09/06 01:38:21;;;;;;;3.83;1.50;;;;;;;16.60;87.27;101313.09;5046216;28;20573;-83
2023/09/06 01:40:48;;;;;;;2.57;1.60;;;;;;;16.50;87.28;101313.91;5043251;28;20315;-81
2023/09/06 01:43:15;;;;;;;3.33;1.80;;;;;;;16.44;88.39;101317.09;5044790;28;20213;-82
2023/09/06 01:45:45;;;;;;;3.97;1.60;;;;;;;16.43;89.30;101320.75;5044888;28;20732;-83
2023/09/06 01:48:12;;;;;;;1.70;1.50;;;;;;;16.42;90.34;101319.91;5044750;28;20205;-80
2023/09/06 01:50:38;;;;;;;1.80;1.50;;;;;;;16.44;90.96;101319.78;5044367;28;20866;-79
2023/09/06 01:53:05;;;;;;;3.57;1.67;;;;;;;16.45;90.88;101319.66;5046085;28;20210;-84
2023/09/06 01:55:31;;;;;;;2.60;1.47;;;;;;;16.44;90.96;101323.34;5048077;28;20209;-80
2023/09/06 01:57:59;;;;;;;2.80;1.60;;;;;;;16.45;90.72;101325.03;5049356;28;20210;-80
2023/09/06 02:00:28;;;;;;;2.97;1.67;;;;;;;16.43;90.12;101321.63;5052523;28;20214;-83
2023/09/06 02:02:55;;;;;;;2.50;1.87;;;;;;;16.39;90.23;101320.13;5047144;28;20208;-79
2023/09/06 02:05:22;;;;;;;5.00;1.97;;;;;;;16.36;91.03;101324.88;5048531;28;20225;-81
2023/09/06 02:07:48;;;;;;;1.33;1.23;;;;;;;16.29;90.94;101320.00;5043645;28;20263;-80
2023/09/06 02:10:15;;;;;;;1.80;1.70;;;;;;;16.25;92.00;101320.34;5048566;28;20573;-80
2023/09/06 02:12:41;;;;;;;3.77;2.00;;;;;;;16.22;93.11;101326.81;5043187;28;20698;-80
2023/09/06 02:15:13;;;;;;;6.27;2.10;;;;;;;16.23;94.07;101327.66;5045383;28;20215;-81
2023/09/06 02:17:42;;;;;;;2.13;1.83;;;;;;;16.24;94.72;101330.22;5045754;28;20644;-80
2023/09/06 02:20:17;;;;;;;2.53;2.10;;;;;;;16.26;95.44;101324.75;5046435;28;20219;-82
2023/09/06 02:22:44;;;;;;;5.03;2.57;;;;;;;16.28;96.15;101331.72;5048673;28;20269;-80
2023/09/06 02:25:10;;;;;;;3.60;2.10;;;;;;;16.30;97.53;101332.44;5043611;28;20229;-79
2023/09/06 02:27:37;;;;;;;2.43;1.93;;;;;;;16.33;98.03;101326.81;5049216;28;20235;-79
2023/09/06 02:30:06;;;;;;;4.13;2.07;;;;;;;16.33;98.26;101331.34;5051723;28;20202;-79
2023/09/06 02:32:34;;;;;;;4.97;2.43;;;;;;;16.32;98.56;101337.69;5039835;28;20313;-81
2023/09/06 02:35:02;;;;;;;3.07;2.30;;;;;;;16.31;98.87;101338.66;5046176;28;20538;-79
2023/09/06 02:37:28;;;;;;;2.70;2.07;;;;;;;16.31;98.82;101334.16;5045011;28;20709;-79
2023/09/06 02:39:55;;;;;;;2.23;1.83;;;;;;;16.31;98.98;101334.16;5045800;28;20222;-79
2023/09/06 02:42:21;;;;;;;2.73;1.90;;;;;;;16.30;99.28;101343.19;5035111;28;20236;-79
2023/09/06 02:44:48;;;;;;;2.60;2.10;;;;;;;16.30;99.13;101343.19;5048381;28;20209;-80
2023/09/06 02:47:15;;;;;;;2.77;1.80;;;;;;;16.31;99.33;101339.53;5045738;28;20579;-81
2023/09/06 02:49:45;;;;;;;3.27;2.30;;;;;;;16.30;99.29;101343.19;5049612;28;20222;-79
2023/09/06 02:52:20;;;;;;;2.47;1.90;;;;;;;16.31;99.38;101338.66;5040996;28;20223;-79
2023/09/06 02:54:47;;;;;;;3.00;2.20;;;;;;;16.30;99.80;101339.66;5046471;28;20212;-82
2023/09/06 02:57:14;;;;;;;3.00;2.17;;;;;;;16.31;100.00;101349.41;5041802;28;20206;-79
2023/09/06 02:59:41;;;;;;;2.93;2.27;;;;;;;16.31;100.00;101344.03;5039005;28;20258;-83
2023/09/06 03:02:07;;;;;;;2.27;2.07;;;;;;;16.29;100.00;101352.25;5048789;28;20229;-81
2023/09/06 03:04:37;;;;;;;2.60;2.20;;;;;;;16.29;100.00;101356.78;5043801;28;20214;-79
2023/09/06 03:07:07;;;;;;;3.07;2.20;;;;;;;16.27;100.00;101364.09;5046618;28;20205;-79
2023/09/06 03:09:35;;;;;;;3.40;2.10;;;;;;;16.24;99.80;101358.94;5044458;28;20228;-80
2023/09/06 03:12:11;;;;;;;3.10;2.00;;;;;;;16.21;99.69;101359.16;5048599;28;20229;-81
2023/09/06 03:14:38;;;;;;;5.10;2.10;;;;;;;16.18;99.81;101360.25;5047089;28;20207;-85
2023/09/06 03:17:08;;;;;;;2.57;2.03;;;;;;;16.16;99.68;101366.72;5048271;28;20811;-79
2023/09/06 03:19:38;;;;;;;3.30;2.13;;;;;;;16.16;99.81;101361.34;5043525;28;20205;-81
2023/09/06 03:22:09;;;;;;;2.70;2.50;;;;;;;16.14;99.75;101364.13;5043503;28;20235;-80
2023/09/06 03:24:35;;;;;;;2.00;1.90;;;;;;;16.12;99.52;101363.38;5049549;28;20296;-79
2023/09/06 03:27:07;;;;;;;3.67;2.43;;;;;;;16.11;99.06;101369.78;5037059;28;20199;-80
2023/09/06 03:29:36;;;;;;;3.10;2.03;;;;;;;16.09;98.84;101362.78;5044210;28;20205;-78
2023/09/06 03:32:03;;;;;;;2.30;1.80;;;;;;;16.06;98.67;101371.06;5040575;28;20218;-81
2023/09/06 03:34:30;;;;;;;2.13;1.93;;;;;;;16.03;98.27;101364.09;5042244;28;20213;-82
2023/09/06 03:36:57;;;;;;;2.13;1.87;;;;;;;16.02;98.06;101374.97;5043854;28;20294;-79
2023/09/06 03:39:28;;;;;;;2.97;2.23;;;;;;;15.96;97.52;101371.75;5048030;28;20579;-79
2023/09/06 03:41:57;;;;;;;3.07;2.20;;;;;;;15.93;97.42;101372.00;5046748;28;20265;-82
2023/09/06 03:44:24;;;;;;;2.43;1.93;;;;;;;15.87;96.67;101374.28;5048702;28;20212;-83
2023/09/06 03:46:51;;;;;;;2.67;2.37;;;;;;;15.82;96.19;101371.06;5045021;28;20208;-79
2023/09/06 03:49:18;;;;;;;2.33;2.13;;;;;;;15.75;95.48;101378.72;5042931;28;20212;-81
2023/09/06 03:51:45;;;;;;;3.30;2.23;;;;;;;15.68;95.27;101374.75;5039130;28;20225;-83
2023/09/06 03:54:12;;;;;;;3.83;2.23;;;;;;;15.63;95.33;101375.09;5049328;28;20219;-79
2023/09/06 03:56:41;;;;;;;3.50;1.70;;;;;;;15.59;95.37;101368.22;5046807;28;20605;-82
2023/09/06 03:59:08;;;;;;;2.47;1.87;;;;;;;15.56;95.46;101378.34;5046071;28;20713;-78
2023/09/06 04:01:34;;;;;;;3.30;2.43;;;;;;;15.54;95.37;101380.25;5043698;28;20330;-80
2023/09/06 04:04:01;;;;;;;3.93;2.00;;;;;;;15.48;95.09;101372.63;5047455;28;20211;-78
2023/09/06 04:06:28;;;;;;;2.70;2.20;;;;;;;15.44;95.79;101368.44;5044445;28;20199;-79
2023/09/06 04:08:55;;;;;;;2.70;2.17;;;;;;;15.40;96.32;101375.03;5048809;28;20213;-80
2023/09/06 04:11:22;;;;;;;3.00;1.83;;;;;;;15.37;96.86;101386.84;5043077;28;20332;-78
2023/09/06 04:13:55;;;;;;;2.17;1.97;;;;;;;15.34;96.61;101379.00;5044773;28;20281;-81
2023/09/06 04:16:22;;;;;;;2.43;1.70;;;;;;;15.31;96.61;101370.31;5045264;28;20674;-80
2023/09/06 04:18:49;;;;;;;2.47;2.10;;;;;;;15.29;96.62;101379.31;5042660;28;20267;-79
2023/09/06 04:21:15;;;;;;;4.50;2.20;;;;;;;15.22;96.72;101380.75;5049328;28;20709;-80
2023/09/06 04:23:43;;;;;;;5.00;1.80;;;;;;;15.16;96.95;101383.00;5049978;28;20662;-82
2023/09/06 04:26:10;;;;;;;2.40;1.80;;;;;;;15.10;97.26;101373.56;5049129;28;20705;-79
2023/09/06 04:28:36;;;;;;;2.77;1.90;;;;;;;15.06;97.99;101376.56;5043174;28;20217;-79
2023/09/06 04:31:05;;;;;;;2.83;1.90;;;;;;;15.05;98.62;101378.38;5050226;28;20234;-78
2023/09/06 04:33:31;;;;;;;2.83;2.27;;;;;;;15.04;99.51;101382.06;5049885;28;20642;-83
2023/09/06 04:35:58;;;;;;;4.20;2.30;;;;;;;15.05;99.74;101377.53;5042116;28;20974;-82
2023/09/06 04:38:25;;;;;;;2.43;2.20;;;;;;;15.02;98.90;101378.63;5051177;28;20283;-79
2023/09/06 04:40:52;;;;;;;2.90;1.93;;;;;;;14.97;98.70;101382.56;5047050;28;20230;-78
2023/09/06 04:43:19;;;;;;;3.77;2.20;;;;;;;14.94;98.84;101383.66;5048876;28;20237;-81
2023/09/06 04:45:47;;;;;;;2.93;2.40;;;;;;;14.93;99.20;101387.28;5049180;28;20216;-79
2023/09/06 04:48:16;;;;;;;2.93;2.23;;;;;;;14.94;99.13;101397.91;5049829;28;20705;-80
2023/09/06 04:50:44;;;;;;;2.87;1.60;;;;;;;14.91;98.85;101391.91;5050436;28;21371;-81
2023/09/06 04:53:12;;;;;;;1.43;1.30;;;;;;;14.84;98.71;101391.50;5048721;28;20202;-80
2023/09/06 04:55:39;;;;;;;3.80;1.70;;;;;;;14.77;98.59;101394.69;5050673;28;20197;-84
2023/09/06 04:58:07;;;;;;;2.70;2.20;;;;;;;14.76;99.43;101392.97;5051725;28;20222;-78
2023/09/06 05:00:38;;;;;;;2.47;2.27;;;;;;;14.74;99.54;101394.91;5052731;28;20598;-78
2023/09/06 05:03:08;;;;;;;4.73;2.50;;;;;;;14.72;100.00;101397.69;5051356;28;20210;-81
2023/09/06 05:05:36;;;;;;;3.13;2.00;;;;;;;14.72;100.00;101400.34;5045978;28;20212;-79
2023/09/06 05:08:03;;;;;;;3.50;2.90;;;;;;;14.72;100.00;101399.50;5040246;28;20209;-79
2023/09/06 05:10:30;;;;;;;2.30;2.10;;;;;;;14.73;100.00;101406.59;5058741;28;20206;-79
2023/09/06 05:12:56;;;;;;;4.27;2.70;;;;;;;14.75;100.00;101410.03;5054621;28;20202;-80
2023/09/06 05:15:23;;;;;;;4.80;3.10;;;;;;;14.79;100.00;101408.84;5047073;28;20213;-79
2023/09/06 05:17:49;;;;;;;4.83;2.83;;;;;;;14.86;100.00;101404.78;5051421;28;20233;-78
2023/09/06 05:20:27;;;;;;;5.90;3.30;;;;;;;14.91;100.00;101408.00;5044201;28;20595;-81
2023/09/06 05:22:57;;;;;;;3.30;3.00;;;;;;;14.95;100.00;101404.13;5044149;28;20233;-80
2023/09/06 05:25:24;;;;;;;4.20;3.00;;;;;;;15.02;100.00;101404.59;5047435;28;20202;-78
2023/09/06 05:27:50;;;;;;;3.30;2.80;;;;;;;15.07;100.00;101408.63;5050693;28;20210;-80
2023/09/06 05:30:17;;;;;;;5.27;3.20;;;;;;;15.11;100.00;101406.59;5045924;28;20202;-79
2023/09/06 05:32:44;;;;;;;4.73;3.00;;;;;;;15.16;100.00;101401.78;5046452;28;20198;-80
2023/09/06 05:35:10;;;;;;;4.97;3.03;;;;;;;15.22;100.00;101404.03;5039442;28;20200;-80
2023/09/06 05:37:37;;;;;;;3.73;3.23;;;;;;;15.29;100.00;101402.63;5045905;28;20585;-80
2023/09/06 05:40:07;;;;;;;6.13;3.50;;;;;;;15.35;100.00;101404.88;5052463;28;20304;-82
2023/09/06 05:42:33;;;;;;;4.77;2.87;;;;;;;15.44;100.00;101409.56;5047430;28;20608;-83
2023/09/06 05:45:00;;;;;;;3.53;3.10;;;;;;;15.53;100.00;101406.25;5051484;28;20203;-82
2023/09/06 05:47:26;;;;;;;4.53;3.40;;;;;;;15.65;100.00;101411.72;5052795;28;20207;-82
2023/09/06 05:49:55;;;;;;;4.47;3.03;;;;;;;15.75;100.00;101415.47;5051615;28;20207;-82
2023/09/06 05:52:22;;;;;;;3.97;2.90;;;;;;;15.88;100.00;101421.66;5052372;28;20246;-82
2023/09/06 05:54:49;;;;;;;3.90;3.30;;;;;;;16.01;100.00;101421.59;5046053;28;20565;-83
2023/09/06 05:57:18;;;;;;;3.67;3.07;;;;;;;16.12;100.00;101427.88;5049827;28;20653;-83
2023/09/06 05:59:44;;;;;;;3.53;2.80;;;;;;;16.23;100.00;101427.97;5051732;28;20215;-82
2023/09/06 06:02:11;;;;;;;3.83;3.03;;;;;;;16.36;100.00;101427.03;5052675;28;20236;-82
2023/09/06 06:04:39;;;;;;;2.87;2.60;;;;;;;16.49;100.00;101431.38;5052685;28;20660;-82
2023/09/06 06:07:06;;;;;;;4.60;2.90;;;;;;;16.62;100.00;101434.88;5045982;28;20221;-82
2023/09/06 06:09:33;;;;;;;4.37;2.40;;;;;;;16.73;100.00;101434.06;5045528;28;20264;-82
2023/09/06 06:11:59;;;;;;;6.37;2.73;;;;;;;16.87;100.00;101438.38;5048203;28;20271;-83
2023/09/06 06:14:28;;;;;;;3.27;2.87;;;;;;;17.01;100.00;101440.88;5048255;28;20217;-83
2023/09/06 06:16:54;;;;;;;4.07;2.67;;;;;;;17.12;100.00;101435.50;5043367;28;20332;-82
2023/09/06 06:19:21;;;;;;;3.73;2.70;;;;;;;17.24;100.00;101434.53;5042707;28;20207;-83
2023/09/06 06:21:47;;;;;;;3.03;2.67;;;;;;;17.40;100.00;101441.38;5046448;28;20242;-82
2023/09/06 06:24:14;;;;;;;4.03;2.40;;;;;;;17.55;100.00;101435.66;5043316;28;20214;-82
2023/09/06 06:26:40;;;;;;;6.40;2.83;;;;;;;17.73;100.00;101436.06;5050533;28;20708;-82
2023/09/06 06:29:07;;;;;;;2.97;2.20;;;;;;;17.89;100.00;101436.50;5046493;28;20202;-83
2023/09/06 06:31:35;;;;;;;2.73;2.33;;;;;;;18.07;100.00;101444.06;5047933;28;20227;-83
2023/09/06 06:34:01;;;;;;;4.37;2.73;;;;;;;18.22;99.62;101440.09;5046953;28;20208;-82
2023/09/06 06:36:28;;;;;;;3.43;2.20;;;;;;;18.35;98.05;101447.03;5048493;28;20299;-82
2023/09/06 06:38:54;;;;;;;5.93;2.67;;;;;;;18.50;96.27;101444.03;5045153;28;20204;-82
2023/09/06 06:41:23;;;;;;;5.07;2.60;;;;;;;18.63;94.86;101444.78;5045872;28;20228;-82
2023/09/06 06:43:49;;;;;;;3.10;2.23;;;;;;;18.75;93.89;101449.13;5046077;28;20232;-82
2023/09/06 06:46:26;;;;;;;2.87;2.33;;;;;;;18.91;93.24;101449.53;5043900;28;20216;-82
2023/09/06 06:48:54;;;;;;;3.93;2.43;;;;;;;19.06;92.08;101452.75;5048802;28;20210;-83
2023/09/06 06:51:21;;;;;;;3.20;2.70;;;;;;;19.19;90.66;101442.59;5047544;28;20221;-82
2023/09/06 06:53:47;;;;;;;3.87;2.20;;;;;;;19.34;89.96;101449.38;5046614;28;20235;-82
2023/09/06 06:56:14;;;;;;;6.40;2.10;;;;;;;19.48;88.88;101450.84;5045196;28;20212;-82
2023/09/06 06:58:40;;;;;;;2.30;2.10;;;;;;;19.62;86.58;101449.66;5051819;28;20217;-82
2023/09/06 07:01:07;;;;;;;2.60;1.80;;;;;;;19.75;84.58;101447.56;5046885;28;20235;-83
2023/09/06 07:03:33;;;;;;;2.47;2.00;;;;;;;19.87;84.55;101435.69;5043001;28;20813;-82
2023/09/06 07:06:01;;;;;;;2.70;2.10;;;;;;;20.01;84.32;101443.38;5045679;28;20203;-82
2023/09/06 07:08:29;;;;;;;1.97;1.77;;;;;;;20.18;83.54;101438.28;5047270;28;20203;-81
2023/09/06 07:10:55;;;;;;;3.63;1.60;;;;;;;20.35;82.45;101446.56;5048498;28;20228;-82
2023/09/06 07:13:22;;;;;;;2.63;1.90;;;;;;;20.51;82.11;101435.22;5051834;28;20210;-82
2023/09/06 07:15:48;;;;;;;3.13;2.63;;;;;;;20.67;83.37;101445.47;5049806;28;20217;-82
2023/09/06 07:18:14;;;;;;;3.17;2.80;;;;;;;20.80;83.68;101444.16;5044097;28;20211;-82
2023/09/06 07:20:41;;;;;;;4.77;2.43;;;;;;;20.98;83.46;101447.00;5047804;28;20260;-81
2023/09/06 07:23:09;;;;;;;3.77;2.77;;;;;;;21.14;82.31;101446.38;5047937;28;20225;-81
2023/09/06 07:25:35;;;;;;;3.25;2.80;;;;;;;21.26;81.13;101444.41;5048628;28;20212;-81
2023/09/06 07:28:02;;;;;;;3.60;2.50;;;;;;;21.36;80.74;101446.09;5046457;28;20205;-82
2023/09/06 07:30:29;;;;;;;4.07;2.20;;;;;;;21.47;79.81;101439.66;5047992;28;20697;-81
2023/09/06 07:32:55;;;;;;;2.30;2.10;;;;;;;21.60;79.49;101444.72;5043604;28;20752;-82
2023/09/06 07:35:22;;;;;;;4.30;2.50;;;;;;;21.73;79.09;101443.38;5045055;28;20197;-82
2023/09/06 07:37:48;;;;;;;2.95;2.40;;;;;;;21.84;77.85;101450.47;5047717;28;20819;-80
2023/09/06 07:40:16;;;;;;;3.30;2.08;;;;;;;21.96;77.49;101451.97;5047652;28;20205;-81
2023/09/06 07:42:42;;;;;;;3.42;2.47;;;;;;;22.08;77.28;101441.78;5047200;28;20228;-81
2023/09/06 07:45:10;;;;;;;4.90;2.30;;;;;;;22.24;76.91;101447.38;5045102;28;20205;-82
2023/09/06 07:47:36;;;;;;;2.70;2.22;;;;;;;22.41;76.31;101440.25;5048794;28;20961;-80
2023/09/06 07:50:04;;;;;;;4.60;2.30;;;;;;;22.60;75.93;101452.81;5050564;28;20209;-82
2023/09/06 07:52:31;;;;;;;4.63;2.20;;;;;;;22.80;75.07;101454.41;5046655;28;20229;-81
2023/09/06 07:54:59;;;;;;;3.42;2.13;;;;;;;23.01;74.45;101451.34;5049907;28;20221;-82
2023/09/06 07:57:27;;;;;;;4.25;2.20;;;;;;;23.18;72.22;101455.88;5053592;28;20205;-81
2023/09/06 07:59:53;;;;;;;2.42;2.08;;;;;;;23.29;71.69;101457.50;5049924;28;20213;-82
2023/09/06 08:02:20;;;;;;;3.90;2.10;;;;;;;23.47;71.56;101453.69;5051309;28;20721;-81
2023/09/06 08:04:46;;;;;;;3.42;2.15;;;;;;;23.61;70.58;101452.28;5052190;28;20225;-82
2023/09/06 08:07:13;;;;;;;2.90;2.25;;;;;;;23.75;70.43;101461.69;5049222;28;20213;-80
2023/09/06 08:09:39;;;;;;;3.60;1.80;;;;;;;23.90;68.94;101460.03;5055127;28;20208;-82
2023/09/06 08:12:06;;;;;;;2.60;1.65;;;;;;;24.03;68.04;101452.25;5048072;28;20233;-80
2023/09/06 08:14:34;;;;;;;3.22;1.73;;;;;;;24.19;67.15;101465.91;5053080;28;20205;-82
2023/09/06 08:17:07;;;;;;;3.83;1.77;;;;;;;24.33;67.50;101463.63;5052371;28;20210;-81
2023/09/06 08:19:33;;;;;;;4.40;1.80;;;;;;;24.47;65.37;101462.97;5049435;28;20211;-80
2023/09/06 08:22:01;;;;;;;2.75;1.63;;;;;;;24.59;65.41;101464.34;5048243;28;20320;-80
2023/09/06 08:24:30;;;;;;;2.90;2.00;;;;;;;24.76;64.95;101459.75;5048574;28;20229;-81
2023/09/06 08:26:58;;;;;;;3.17;1.85;;;;;;;24.95;64.96;101466.75;5048758;28;20210;-81
2023/09/06 08:29:24;;;;;;;3.38;1.95;;;;;;;25.15;63.27;101462.66;5048065;28;20220;-81
2023/09/06 08:31:52;;;;;;;4.68;1.90;;;;;;;25.28;60.56;101454.78;5051626;28;20264;-80
2023/09/06 08:34:19;;;;;;;2.92;1.73;;;;;;;25.43;60.72;101450.34;5045089;28;20212;-81
2023/09/06 08:36:45;;;;;;;2.55;1.70;;;;;;;25.61;59.54;101452.84;5054177;28;20300;-79
2023/09/06 08:39:12;;;;;;;8.18;2.40;;;;;;;25.76;58.56;101450.28;5048806;28;20209;-79
2023/09/06 08:41:40;;;;;;;2.88;2.05;;;;;;;25.89;57.88;101450.53;5050333;28;20227;-81
2023/09/06 08:44:11;;;;;;;2.95;2.08;;;;;;;26.04;57.39;101454.22;5044751;28;20232;-80
2023/09/06 08:46:44;;;;;;;5.15;1.90;;;;;;;26.23;57.03;101444.72;5038819;28;20198;-81
2023/09/06 08:49:13;;;;;;;2.20;1.77;;;;;;;26.44;56.28;101449.59;5046150;28;20205;-82
2023/09/06 08:51:42;;;;;;;3.65;1.63;;;;;;;26.63;55.82;101446.38;5050267;28;20286;-81
2023/09/06 08:54:09;;;;;;;1.70;1.60;;;;;;;26.79;54.31;101440.78;5047577;28;20209;-81
2023/09/06 08:56:36;;;;;;;2.22;1.80;;;;;;;26.92;54.06;101445.59;5051611;28;20212;-80
2023/09/06 08:59:03;;;;;;;3.60;1.88;;;;;;;27.07;53.84;101442.94;5054417;28;20662;-81
2023/09/06 09:01:30;;;;;;;3.40;2.05;;;;;;;27.21;52.64;101440.25;5053578;28;20239;-82
2023/09/06 09:03:56;;;;;;;1.95;1.65;;;;;;;27.31;51.46;101442.69;5049658;28;20240;-81
2023/09/06 09:06:25;;;;;;;2.83;1.73;;;;;;;27.41;50.93;101435.06;5050715;28;20605;-82
2023/09/06 09:08:51;;;;;;;4.50;2.00;;;;;;;27.54;50.54;101435.25;5051399;28;20209;-80
2023/09/06 09:11:19;;;;;;;4.22;1.92;;;;;;;27.70;50.13;101444.34;5053667;28;20581;-80
2023/09/06 09:13:46;;;;;;;2.53;1.85;;;;;;;27.82;49.69;101440.06;5049579;28;20788;-81
2023/09/06 09:16:14;;;;;;;4.63;1.88;;;;;;;27.94;49.15;101439.41;5048078;28;20210;-79
2023/09/06 09:18:43;;;;;;;1.90;1.58;;;;;;;28.07;48.38;101444.19;5051893;28;20228;-82
2023/09/06 09:21:12;;;;;;;2.55;1.73;;;;;;;28.14;48.57;101439.63;5051791;28;20232;-83
2023/09/06 09:23:46;;;;;;;3.70;1.90;;;;;;;28.16;47.61;101436.69;5054163;28;20241;-82
2023/09/06 09:26:13;;;;;;;2.15;1.80;;;;;;;28.13;46.79;101432.44;5051545;28;20212;-82
2023/09/06 09:28:42;;;;;;;3.88;2.38;;;;;;;28.15;46.67;101438.59;5052083;28;20216;-82
2023/09/06 09:31:13;;;;;;;2.70;2.00;;;;;;;28.21;46.45;101437.84;5048799;28;20225;-83
2023/09/06 09:33:39;;;;;;;4.22;2.33;;;;;;;28.22;45.25;101442.31;5048155;28;20218;-85
2023/09/06 09:36:07;;;;;;;3.03;2.35;;;;;;;28.31;44.61;101441.13;5057995;28;20201;-85
2023/09/06 09:38:34;;;;;;;3.53;2.00;;;;;;;28.38;44.36;101430.25;5053967;28;20562;-84
2023/09/06 09:41:08;;;;;;;2.65;2.15;;;;;;;28.45;44.82;101436.66;5054217;28;20809;-85
2023/09/06 09:43:35;;;;;;;2.63;2.00;;;;;;;28.56;44.48;101446.22;5054323;28;20217;-83
2023/09/06 09:46:03;;;;;;;2.38;1.65;;;;;;;28.66;43.00;101444.03;5051653;28;20236;-83
2023/09/06 09:48:31;;;;;;;4.45;2.10;;;;;;;28.74;43.26;101441.13;5055608;28;20197;-84
2023/09/06 09:51:00;;;;;;;4.57;2.08;;;;;;;28.84;43.06;101441.66;5053826;28;20364;-84
2023/09/06 09:53:29;;;;;;;4.45;1.80;;;;;;;28.93;42.68;101445.97;5051928;28;20205;-84
2023/09/06 09:55:57;;;;;;;3.05;1.75;;;;;;;29.00;42.08;101444.16;5051138;28;20201;-85
2023/09/06 09:58:27;;;;;;;2.80;1.85;;;;;;;29.08;41.97;101440.41;5053556;28;20197;-83
2023/09/06 10:00:56;;;;;;;2.33;1.90;;;;;;;29.13;41.54;101437.06;5046988;28;20732;-84
2023/09/06 10:03:23;;;;;;;3.83;2.00;;;;;;;29.19;41.07;101430.78;5052524;28;20297;-84
2023/09/06 10:05:50;;;;;;;3.30;1.63;;;;;;;29.23;41.01;101435.66;5045297;28;20649;-85
2023/09/06 10:08:19;;;;;;;3.53;2.30;;;;;;;29.30;40.96;101432.97;5054984;28;20201;-84
2023/09/06 10:10:46;;;;;;;5.82;2.13;;;;;;;29.33;41.25;101427.09;5048245;28;20715;-84
2023/09/06 10:13:15;;;;;;;3.53;2.17;;;;;;;29.43;41.41;101427.59;5047114;28;20690;-83
2023/09/06 10:15:45;;;;;;;3.70;1.77;;;;;;;29.53;41.89;101425.34;5051979;28;20292;-83
2023/09/06 10:18:12;;;;;;;1.60;1.42;;;;;;;29.59;40.71;101431.91;5051654;28;20666;-84
2023/09/06 10:20:40;;;;;;;1.50;1.40;;;;;;;29.63;39.51;101424.97;5049322;28;20251;-85
2023/09/06 10:23:07;;;;;;;1.70;1.52;;;;;;;29.67;39.32;101418.88;5053035;28;20206;-84
2023/09/06 10:25:40;;;;;;;1.95;1.50;;;;;;;29.70;39.82;101423.09;5053677;28;20292;-83
2023/09/06 10:28:07;;;;;;;3.65;1.48;;;;;;;29.72;39.35;101418.25;5052481;28;20208;-83
2023/09/06 10:30:43;;;;;;;2.63;1.50;;;;;;;29.79;40.15;101413.63;5048432;28;20213;-82
2023/09/06 10:33:11;;;;;;;2.58;1.30;;;;;;;29.86;39.51;101417.25;5050607;28;20207;-83
2023/09/06 10:35:43;;;;;;;2.72;1.40;;;;;;;29.90;39.58;101415.81;5043196;28;20217;-82
2023/09/06 10:38:14;;;;;;;1.77;1.10;;;;;;;29.97;38.85;101413.06;5050738;28;20210;-85
2023/09/06 10:41:06;;;;;;;1.80;1.30;;;;;;;30.03;39.09;101404.91;5054559;28;20229;-84
2023/09/06 10:43:55;;;;;;;1.85;1.30;;;;;;;30.08;39.71;101400.69;5057510;28;20225;-82
2023/09/06 10:46:31;;;;;;;1.77;1.33;;;;;;;30.12;39.84;101407.44;5047501;28;20198;-83
2023/09/06 10:49:22;;;;;;;1.77;1.40;;;;;;;30.18;39.23;101409.38;5049752;28;20262;-84
2023/09/06 10:52:02;;;;;;;2.63;1.23;;;;;;;30.22;39.65;101414.25;5055408;28;20239;-83
2023/09/06 10:54:34;;;;;;;3.63;1.48;;;;;;;30.21;39.55;101412.56;5045859;28;20205;-84
2023/09/06 10:57:03;;;;;;;1.98;1.52;;;;;;;30.26;39.42;101411.94;5052111;28;20224;-85
2023/09/06 10:59:30;;;;;;;1.45;1.30;;;;;;;30.29;39.25;101409.59;5053629;28;20296;-83
2023/09/06 11:02:27;;;;;;;4.07;1.60;;;;;;;30.38;39.14;101410.25;5051539;28;20225;-85
2023/09/06 11:05:07;;;;;;;2.10;1.50;;;;;;;30.47;39.33;101405.41;5006399;28;20767;-83
2023/09/06 11:07:43;;;;;;;1.70;1.45;;;;;;;30.57;39.64;101412.22;5049056;28;20205;-83
2023/09/06 11:10:10;;;;;;;2.22;1.30;;;;;;;30.65;38.76;101408.41;5048786;28;20229;-83
2023/09/06 11:12:37;;;;;;;1.88;1.38;;;;;;;30.65;38.06;101405.66;5053608;28;20247;-83
2023/09/06 11:15:06;;;;;;;2.75;1.50;;;;;;;30.64;37.71;101403.97;5051523;28;20220;-83
2023/09/06 11:17:33;;;;;;;1.70;1.25;;;;;;;30.65;38.63;101414.75;5056405;28;20263;-83
2023/09/06 11:20:12;;;;;;;1.38;1.27;;;;;;;30.68;37.74;101411.59;5052314;28;20297;-83
2023/09/06 11:22:39;;;;;;;1.50;1.23;;;;;;;30.69;38.53;101415.19;5046056;28;20221;-83
2023/09/06 11:25:16;;;;;;;1.70;1.17;;;;;;;30.74;38.33;101415.41;5051000;28;20225;-82
2023/09/06 11:27:42;;;;;;;3.00;1.40;;;;;;;30.78;36.99;101405.69;5054005;28;20284;-83
2023/09/06 11:30:15;;;;;;;3.33;1.55;;;;;;;30.82;36.75;101409.69;5044404;28;20216;-85
2023/09/06 11:32:44;;;;;;;1.58;1.20;;;;;;;30.84;37.38;101413.06;5054024;28;20224;-85